sensor_id;sensor_type;location;lat;lon;timestamp;P1;durP1;ratioP1;P2;durP2;ratioP2
49193;SDS011;35029;50.804;12.866;2023-07-24T00:00:43;5.60;;;3.35;;
49193;SDS011;35029;50.804;12.866;2023-07-24T00:03:09;3.78;;;3.40;;
49193;SDS011;35029;50.804;12.866;2023-07-24T00:05:34;6.65;;;3.70;;
49193;SDS011;35029;50.804;12.866;2023-07-24T00:08:00;4.28;;;3.88;;
49193;SDS011;35029;50.804;12.866;2023-07-24T00:10:26;4.07;;;3.67;;
49193;SDS011;35029;50.804;12.866;2023-07-24T00:12:51;5.53;;;3.55;;
49193;SDS011;35029;50.804;12.866;2023-07-24T00:15:17;4.05;;;3.65;;
49193;SDS011;35029;50.804;12.866;2023-07-24T00:17:42;8.23;;;2.90;;
49193;SDS011;35029;50.804;12.866;2023-07-24T00:20:08;3.80;;;3.50;;
49193;SDS011;35029;50.804;12.866;2023-07-24T00:22:34;3.65;;;3.35;;
49193;SDS011;35029;50.804;12.866;2023-07-24T00:24:59;3.47;;;3.10;;
49193;SDS011;35029;50.804;12.866;2023-07-24T00:27:25;3.65;;;3.22;;
49193;SDS011;35029;50.804;12.866;2023-07-24T00:29:50;4.60;;;3.50;;
49193;SDS011;35029;50.804;12.866;2023-07-24T00:32:16;3.38;;;2.92;;
49193;SDS011;35029;50.804;12.866;2023-07-24T00:34:41;3.60;;;2.95;;
49193;SDS011;35029;50.804;12.866;2023-07-24T00:37:07;4.05;;;3.60;;
49193;SDS011;35029;50.804;12.866;2023-07-24T00:39:32;5.05;;;3.50;;
49193;SDS011;35029;50.804;12.866;2023-07-24T00:41:58;4.03;;;3.63;;
49193;SDS011;35029;50.804;12.866;2023-07-24T00:44:23;4.20;;;3.78;;
49193;SDS011;35029;50.804;12.866;2023-07-24T00:46:49;3.88;;;3.33;;
49193;SDS011;35029;50.804;12.866;2023-07-24T00:49:15;3.72;;;3.30;;
49193;SDS011;35029;50.804;12.866;2023-07-24T00:51:42;3.72;;;3.38;;
49193;SDS011;35029;50.804;12.866;2023-07-24T00:54:09;4.32;;;3.92;;
49193;SDS011;35029;50.804;12.866;2023-07-24T00:56:36;3.80;;;3.28;;
49193;SDS011;35029;50.804;12.866;2023-07-24T00:59:02;8.10;;;3.53;;
49193;SDS011;35029;50.804;12.866;2023-07-24T01:01:28;4.10;;;3.30;;
49193;SDS011;35029;50.804;12.866;2023-07-24T01:03:54;4.03;;;3.58;;
49193;SDS011;35029;50.804;12.866;2023-07-24T01:06:21;4.32;;;3.88;;
49193;SDS011;35029;50.804;12.866;2023-07-24T01:08:47;5.68;;;3.70;;
49193;SDS011;35029;50.804;12.866;2023-07-24T01:11:18;4.00;;;3.60;;
49193;SDS011;35029;50.804;12.866;2023-07-24T01:16:36;3.95;;;3.50;;
49193;SDS011;35029;50.804;12.866;2023-07-24T01:19:04;4.10;;;3.60;;
49193;SDS011;35029;50.804;12.866;2023-07-24T01:21:42;4.72;;;3.92;;
49193;SDS011;35029;50.804;12.866;2023-07-24T01:26:45;3.65;;;3.25;;
49193;SDS011;35029;50.804;12.866;2023-07-24T01:29:11;4.28;;;3.70;;
49193;SDS011;35029;50.804;12.866;2023-07-24T01:31:36;4.10;;;3.28;;
49193;SDS011;35029;50.804;12.866;2023-07-24T01:34:02;3.90;;;3.45;;
49193;SDS011;35029;50.804;12.866;2023-07-24T01:36:27;4.15;;;3.47;;
49193;SDS011;35029;50.804;12.866;2023-07-24T01:38:53;4.43;;;3.70;;
49193;SDS011;35029;50.804;12.866;2023-07-24T01:41:19;6.35;;;3.50;;
49193;SDS011;35029;50.804;12.866;2023-07-24T01:43:45;4.55;;;3.28;;
49193;SDS011;35029;50.804;12.866;2023-07-24T01:46:11;4.10;;;3.53;;
49193;SDS011;35029;50.804;12.866;2023-07-24T01:48:36;4.88;;;3.75;;
49193;SDS011;35029;50.804;12.866;2023-07-24T01:51:02;4.15;;;3.40;;
49193;SDS011;35029;50.804;12.866;2023-07-24T01:53:28;4.15;;;3.67;;
49193;SDS011;35029;50.804;12.866;2023-07-24T01:55:54;4.10;;;3.45;;
49193;SDS011;35029;50.804;12.866;2023-07-24T01:58:19;4.10;;;3.42;;
49193;SDS011;35029;50.804;12.866;2023-07-24T02:00:45;4.03;;;3.60;;
49193;SDS011;35029;50.804;12.866;2023-07-24T02:03:10;3.70;;;3.33;;
49193;SDS011;35029;50.804;12.866;2023-07-24T02:05:36;4.15;;;3.47;;
49193;SDS011;35029;50.804;12.866;2023-07-24T02:08:01;4.30;;;3.65;;
49193;SDS011;35029;50.804;12.866;2023-07-24T02:10:27;5.05;;;4.13;;
49193;SDS011;35029;50.804;12.866;2023-07-24T02:12:53;4.32;;;3.92;;
49193;SDS011;35029;50.804;12.866;2023-07-24T02:15:18;4.57;;;4.07;;
49193;SDS011;35029;50.804;12.866;2023-07-24T02:17:44;3.50;;;3.20;;
49193;SDS011;35029;50.804;12.866;2023-07-24T02:20:09;4.38;;;3.63;;
49193;SDS011;35029;50.804;12.866;2023-07-24T02:22:35;4.65;;;4.18;;
49193;SDS011;35029;50.804;12.866;2023-07-24T02:25:05;4.28;;;3.50;;
49193;SDS011;35029;50.804;12.866;2023-07-24T02:27:32;7.63;;;4.20;;
49193;SDS011;35029;50.804;12.866;2023-07-24T02:29:59;5.20;;;3.92;;
49193;SDS011;35029;50.804;12.866;2023-07-24T02:32:26;4.28;;;3.45;;
49193;SDS011;35029;50.804;12.866;2023-07-24T02:34:52;4.75;;;4.25;;
49193;SDS011;35029;50.804;12.866;2023-07-24T02:37:18;6.50;;;4.38;;
49193;SDS011;35029;50.804;12.866;2023-07-24T02:39:44;6.03;;;4.13;;
49193;SDS011;35029;50.804;12.866;2023-07-24T02:42:10;4.00;;;3.60;;
49193;SDS011;35029;50.804;12.866;2023-07-24T02:44:37;6.22;;;4.28;;
49193;SDS011;35029;50.804;12.866;2023-07-24T02:47:03;6.88;;;3.83;;
49193;SDS011;35029;50.804;12.866;2023-07-24T02:49:29;6.43;;;3.88;;
49193;SDS011;35029;50.804;12.866;2023-07-24T02:51:54;5.82;;;4.10;;
49193;SDS011;35029;50.804;12.866;2023-07-24T02:54:20;5.97;;;4.15;;
49193;SDS011;35029;50.804;12.866;2023-07-24T02:56:46;4.15;;;3.75;;
49193;SDS011;35029;50.804;12.866;2023-07-24T02:59:11;4.40;;;3.70;;
49193;SDS011;35029;50.804;12.866;2023-07-24T03:01:37;5.20;;;3.75;;
49193;SDS011;35029;50.804;12.866;2023-07-24T03:04:02;4.05;;;3.50;;
49193;SDS011;35029;50.804;12.866;2023-07-24T03:06:30;6.15;;;3.78;;
49193;SDS011;35029;50.804;12.866;2023-07-24T03:08:56;6.57;;;4.25;;
49193;SDS011;35029;50.804;12.866;2023-07-24T03:11:21;5.07;;;4.10;;
49193;SDS011;35029;50.804;12.866;2023-07-24T03:13:46;4.90;;;4.32;;
49193;SDS011;35029;50.804;12.866;2023-07-24T03:16:12;4.43;;;4.03;;
49193;SDS011;35029;50.804;12.866;2023-07-24T03:18:37;4.40;;;4.00;;
49193;SDS011;35029;50.804;12.866;2023-07-24T03:21:03;5.70;;;4.03;;
49193;SDS011;35029;50.804;12.866;2023-07-24T03:23:29;4.85;;;4.28;;
49193;SDS011;35029;50.804;12.866;2023-07-24T03:25:54;4.43;;;4.03;;
49193;SDS011;35029;50.804;12.866;2023-07-24T03:28:20;4.63;;;3.90;;
49193;SDS011;35029;50.804;12.866;2023-07-24T03:30:45;4.93;;;4.18;;
49193;SDS011;35029;50.804;12.866;2023-07-24T03:33:11;3.60;;;3.30;;
49193;SDS011;35029;50.804;12.866;2023-07-24T03:35:37;5.38;;;3.92;;
49193;SDS011;35029;50.804;12.866;2023-07-24T03:38:04;4.60;;;3.90;;
49193;SDS011;35029;50.804;12.866;2023-07-24T03:40:30;4.85;;;3.70;;
49193;SDS011;35029;50.804;12.866;2023-07-24T03:42:56;4.85;;;4.18;;
49193;SDS011;35029;50.804;12.866;2023-07-24T03:45:22;5.47;;;3.80;;
49193;SDS011;35029;50.804;12.866;2023-07-24T03:47:48;4.50;;;3.67;;
49193;SDS011;35029;50.804;12.866;2023-07-24T03:50:13;4.35;;;3.95;;
49193;SDS011;35029;50.804;12.866;2023-07-24T03:52:39;7.07;;;3.95;;
49193;SDS011;35029;50.804;12.866;2023-07-24T03:55:04;5.95;;;4.05;;
49193;SDS011;35029;50.804;12.866;2023-07-24T03:57:30;4.82;;;4.22;;
49193;SDS011;35029;50.804;12.866;2023-07-24T03:59:56;5.90;;;3.78;;
49193;SDS011;35029;50.804;12.866;2023-07-24T04:02:21;5.57;;;4.03;;
49193;SDS011;35029;50.804;12.866;2023-07-24T04:04:48;6.90;;;3.95;;
49193;SDS011;35029;50.804;12.866;2023-07-24T04:07:13;5.00;;;3.95;;
49193;SDS011;35029;50.804;12.866;2023-07-24T04:09:39;5.97;;;4.55;;
49193;SDS011;35029;50.804;12.866;2023-07-24T04:12:04;5.68;;;3.58;;
49193;SDS011;35029;50.804;12.866;2023-07-24T04:14:30;5.70;;;4.13;;
49193;SDS011;35029;50.804;12.866;2023-07-24T04:16:56;6.75;;;4.60;;
49193;SDS011;35029;50.804;12.866;2023-07-24T04:19:21;6.35;;;4.20;;
49193;SDS011;35029;50.804;12.866;2023-07-24T04:21:47;4.15;;;3.75;;
49193;SDS011;35029;50.804;12.866;2023-07-24T04:24:12;6.88;;;4.43;;
49193;SDS011;35029;50.804;12.866;2023-07-24T04:26:38;8.45;;;4.07;;
49193;SDS011;35029;50.804;12.866;2023-07-24T04:29:05;4.30;;;3.90;;
49193;SDS011;35029;50.804;12.866;2023-07-24T04:31:31;6.07;;;4.18;;
49193;SDS011;35029;50.804;12.866;2023-07-24T04:33:56;5.57;;;4.53;;
49193;SDS011;35029;50.804;12.866;2023-07-24T04:36:22;10.05;;;4.90;;
49193;SDS011;35029;50.804;12.866;2023-07-24T04:38:47;6.03;;;4.47;;
49193;SDS011;35029;50.804;12.866;2023-07-24T04:41:13;5.05;;;4.03;;
49193;SDS011;35029;50.804;12.866;2023-07-24T04:43:38;4.72;;;4.20;;
49193;SDS011;35029;50.804;12.866;2023-07-24T04:46:04;6.78;;;4.40;;
49193;SDS011;35029;50.804;12.866;2023-07-24T04:48:30;4.88;;;4.32;;
49193;SDS011;35029;50.804;12.866;2023-07-24T04:50:56;4.65;;;4.00;;
49193;SDS011;35029;50.804;12.866;2023-07-24T04:53:22;6.80;;;4.53;;
49193;SDS011;35029;50.804;12.866;2023-07-24T04:55:48;4.65;;;4.15;;
49193;SDS011;35029;50.804;12.866;2023-07-24T04:58:13;5.82;;;5.07;;
49193;SDS011;35029;50.804;12.866;2023-07-24T05:00:39;6.03;;;4.57;;
49193;SDS011;35029;50.804;12.866;2023-07-24T05:03:05;6.55;;;4.75;;
49193;SDS011;35029;50.804;12.866;2023-07-24T05:05:33;7.07;;;4.47;;
49193;SDS011;35029;50.804;12.866;2023-07-24T05:07:58;5.75;;;4.80;;
49193;SDS011;35029;50.804;12.866;2023-07-24T05:10:24;5.03;;;4.53;;
49193;SDS011;35029;50.804;12.866;2023-07-24T05:12:51;6.22;;;4.97;;
49193;SDS011;35029;50.804;12.866;2023-07-24T05:15:17;5.82;;;4.78;;
49193;SDS011;35029;50.804;12.866;2023-07-24T05:17:43;5.07;;;4.15;;
49193;SDS011;35029;50.804;12.866;2023-07-24T05:20:09;7.22;;;4.93;;
49193;SDS011;35029;50.804;12.866;2023-07-24T05:22:35;13.02;;;4.78;;
49193;SDS011;35029;50.804;12.866;2023-07-24T05:25:00;8.80;;;5.00;;
49193;SDS011;35029;50.804;12.866;2023-07-24T05:27:26;5.38;;;4.45;;
49193;SDS011;35029;50.804;12.866;2023-07-24T05:29:52;7.18;;;4.85;;
49193;SDS011;35029;50.804;12.866;2023-07-24T05:32:17;6.10;;;4.35;;
49193;SDS011;35029;50.804;12.866;2023-07-24T05:34:43;5.53;;;4.70;;
49193;SDS011;35029;50.804;12.866;2023-07-24T05:37:08;5.53;;;4.45;;
49193;SDS011;35029;50.804;12.866;2023-07-24T05:39:34;6.43;;;5.10;;
49193;SDS011;35029;50.804;12.866;2023-07-24T05:42:00;5.25;;;4.75;;
49193;SDS011;35029;50.804;12.866;2023-07-24T05:44:27;5.97;;;5.35;;
49193;SDS011;35029;50.804;12.866;2023-07-24T05:46:53;5.78;;;5.10;;
49193;SDS011;35029;50.804;12.866;2023-07-24T05:49:18;6.78;;;4.88;;
49193;SDS011;35029;50.804;12.866;2023-07-24T05:51:44;6.18;;;4.57;;
49193;SDS011;35029;50.804;12.866;2023-07-24T05:54:09;5.57;;;4.95;;
49193;SDS011;35029;50.804;12.866;2023-07-24T05:56:35;5.38;;;4.57;;
49193;SDS011;35029;50.804;12.866;2023-07-24T05:59:00;7.00;;;5.75;;
49193;SDS011;35029;50.804;12.866;2023-07-24T06:01:26;6.03;;;5.22;;
49193;SDS011;35029;50.804;12.866;2023-07-24T06:03:51;5.40;;;4.78;;
49193;SDS011;35029;50.804;12.866;2023-07-24T06:06:17;6.53;;;5.60;;
49193;SDS011;35029;50.804;12.866;2023-07-24T06:08:42;7.03;;;4.90;;
49193;SDS011;35029;50.804;12.866;2023-07-24T06:11:08;8.20;;;5.10;;
49193;SDS011;35029;50.804;12.866;2023-07-24T06:13:33;6.47;;;4.93;;
49193;SDS011;35029;50.804;12.866;2023-07-24T06:15:59;7.25;;;5.20;;
49193;SDS011;35029;50.804;12.866;2023-07-24T06:18:24;8.20;;;4.88;;
49193;SDS011;35029;50.804;12.866;2023-07-24T06:20:53;11.65;;;5.78;;
49193;SDS011;35029;50.804;12.866;2023-07-24T06:23:19;7.35;;;5.38;;
49193;SDS011;35029;50.804;12.866;2023-07-24T06:25:45;7.53;;;5.47;;
49193;SDS011;35029;50.804;12.866;2023-07-24T06:28:11;10.75;;;5.50;;
49193;SDS011;35029;50.804;12.866;2023-07-24T06:30:38;5.40;;;4.90;;
49193;SDS011;35029;50.804;12.866;2023-07-24T06:33:03;8.48;;;5.63;;
49193;SDS011;35029;50.804;12.866;2023-07-24T06:35:29;6.97;;;5.40;;
49193;SDS011;35029;50.804;12.866;2023-07-24T06:37:54;6.80;;;5.10;;
49193;SDS011;35029;50.804;12.866;2023-07-24T06:40:20;6.68;;;5.25;;
49193;SDS011;35029;50.804;12.866;2023-07-24T06:42:45;5.22;;;4.43;;
49193;SDS011;35029;50.804;12.866;2023-07-24T06:45:11;8.82;;;5.22;;
49193;SDS011;35029;50.804;12.866;2023-07-24T06:47:37;6.35;;;5.63;;
49193;SDS011;35029;50.804;12.866;2023-07-24T06:50:02;5.45;;;4.75;;
49193;SDS011;35029;50.804;12.866;2023-07-24T06:52:29;5.82;;;4.78;;
49193;SDS011;35029;50.804;12.866;2023-07-24T06:54:56;6.88;;;5.55;;
49193;SDS011;35029;50.804;12.866;2023-07-24T06:57:23;6.13;;;5.15;;
49193;SDS011;35029;50.804;12.866;2023-07-24T06:59:49;6.40;;;5.18;;
49193;SDS011;35029;50.804;12.866;2023-07-24T07:02:15;7.07;;;5.45;;
49193;SDS011;35029;50.804;12.866;2023-07-24T07:04:40;6.63;;;5.10;;
49193;SDS011;35029;50.804;12.866;2023-07-24T07:07:06;8.80;;;6.30;;
49193;SDS011;35029;50.804;12.866;2023-07-24T07:09:32;6.00;;;5.25;;
49193;SDS011;35029;50.804;12.866;2023-07-24T07:11:57;7.32;;;5.32;;
49193;SDS011;35029;50.804;12.866;2023-07-24T07:14:23;6.45;;;5.03;;
49193;SDS011;35029;50.804;12.866;2023-07-24T07:16:49;6.18;;;5.22;;
49193;SDS011;35029;50.804;12.866;2023-07-24T07:19:15;6.70;;;5.80;;
49193;SDS011;35029;50.804;12.866;2023-07-24T07:21:40;8.55;;;5.30;;
49193;SDS011;35029;50.804;12.866;2023-07-24T07:24:06;8.88;;;5.40;;
49193;SDS011;35029;50.804;12.866;2023-07-24T07:26:31;6.30;;;4.95;;
49193;SDS011;35029;50.804;12.866;2023-07-24T07:28:57;7.53;;;6.20;;
49193;SDS011;35029;50.804;12.866;2023-07-24T07:31:22;7.22;;;5.78;;
49193;SDS011;35029;50.804;12.866;2023-07-24T07:33:48;9.77;;;5.93;;
49193;SDS011;35029;50.804;12.866;2023-07-24T07:36:14;8.50;;;6.47;;
49193;SDS011;35029;50.804;12.866;2023-07-24T07:38:39;7.72;;;6.65;;
49193;SDS011;35029;50.804;12.866;2023-07-24T07:41:05;7.68;;;6.57;;
49193;SDS011;35029;50.804;12.866;2023-07-24T07:43:31;9.02;;;7.07;;
49193;SDS011;35029;50.804;12.866;2023-07-24T07:45:57;9.20;;;7.03;;
49193;SDS011;35029;50.804;12.866;2023-07-24T07:48:24;11.32;;;7.07;;
49193;SDS011;35029;50.804;12.866;2023-07-24T07:50:52;10.25;;;6.45;;
49193;SDS011;35029;50.804;12.866;2023-07-24T07:53:18;12.48;;;7.40;;
49193;SDS011;35029;50.804;12.866;2023-07-24T07:55:43;9.82;;;7.07;;
49193;SDS011;35029;50.804;12.866;2023-07-24T07:58:09;8.52;;;6.68;;
49193;SDS011;35029;50.804;12.866;2023-07-24T08:00:35;8.10;;;6.57;;
49193;SDS011;35029;50.804;12.866;2023-07-24T08:03:00;10.13;;;7.05;;
49193;SDS011;35029;50.804;12.866;2023-07-24T08:05:26;13.35;;;7.03;;
49193;SDS011;35029;50.804;12.866;2023-07-24T08:07:51;9.43;;;6.40;;
49193;SDS011;35029;50.804;12.866;2023-07-24T08:10:17;8.13;;;6.90;;
49193;SDS011;35029;50.804;12.866;2023-07-24T08:12:43;8.20;;;7.07;;
49193;SDS011;35029;50.804;12.866;2023-07-24T08:15:09;8.10;;;6.60;;
49193;SDS011;35029;50.804;12.866;2023-07-24T08:17:35;7.15;;;6.07;;
49193;SDS011;35029;50.804;12.866;2023-07-24T08:20:00;7.03;;;6.28;;
49193;SDS011;35029;50.804;12.866;2023-07-24T08:22:26;7.53;;;6.50;;
49193;SDS011;35029;50.804;12.866;2023-07-24T08:24:52;9.52;;;6.75;;
49193;SDS011;35029;50.804;12.866;2023-07-24T08:27:17;8.18;;;6.05;;
49193;SDS011;35029;50.804;12.866;2023-07-24T08:29:43;7.07;;;5.55;;
49193;SDS011;35029;50.804;12.866;2023-07-24T08:32:08;7.10;;;5.97;;
49193;SDS011;35029;50.804;12.866;2023-07-24T08:34:34;7.30;;;5.70;;
49193;SDS011;35029;50.804;12.866;2023-07-24T08:36:59;8.07;;;5.75;;
49193;SDS011;35029;50.804;12.866;2023-07-24T08:39:25;10.48;;;5.63;;
49193;SDS011;35029;50.804;12.866;2023-07-24T08:41:51;7.55;;;6.03;;
49193;SDS011;35029;50.804;12.866;2023-07-24T08:44:16;9.38;;;6.32;;
49193;SDS011;35029;50.804;12.866;2023-07-24T08:46:42;5.97;;;5.38;;
49193;SDS011;35029;50.804;12.866;2023-07-24T08:49:14;5.72;;;5.13;;
49193;SDS011;35029;50.804;12.866;2023-07-24T08:51:40;7.32;;;4.68;;
49193;SDS011;35029;50.804;12.866;2023-07-24T08:54:07;7.60;;;5.15;;
49193;SDS011;35029;50.804;12.866;2023-07-24T08:56:33;6.85;;;5.03;;
49193;SDS011;35029;50.804;12.866;2023-07-24T08:59:01;5.47;;;4.50;;
49193;SDS011;35029;50.804;12.866;2023-07-24T09:01:26;5.70;;;4.78;;
49193;SDS011;35029;50.804;12.866;2023-07-24T09:03:52;6.13;;;4.47;;
49193;SDS011;35029;50.804;12.866;2023-07-24T09:06:17;5.47;;;4.57;;
49193;SDS011;35029;50.804;12.866;2023-07-24T09:08:43;5.50;;;4.65;;
49193;SDS011;35029;50.804;12.866;2023-07-24T09:11:09;6.95;;;4.50;;
49193;SDS011;35029;50.804;12.866;2023-07-24T09:13:41;8.67;;;4.63;;
49193;SDS011;35029;50.804;12.866;2023-07-24T09:16:08;5.05;;;4.55;;
49193;SDS011;35029;50.804;12.866;2023-07-24T09:18:40;6.03;;;4.63;;
49193;SDS011;35029;50.804;12.866;2023-07-24T09:21:06;6.30;;;4.43;;
49193;SDS011;35029;50.804;12.866;2023-07-24T09:23:32;7.47;;;4.72;;
49193;SDS011;35029;50.804;12.866;2023-07-24T09:25:57;5.28;;;4.63;;
49193;SDS011;35029;50.804;12.866;2023-07-24T09:28:23;5.07;;;4.05;;
49193;SDS011;35029;50.804;12.866;2023-07-24T09:30:53;8.73;;;5.13;;
49193;SDS011;35029;50.804;12.866;2023-07-24T09:33:21;11.20;;;5.55;;
49193;SDS011;35029;50.804;12.866;2023-07-24T09:35:57;7.30;;;5.18;;
49193;SDS011;35029;50.804;12.866;2023-07-24T09:38:24;6.22;;;5.03;;
49193;SDS011;35029;50.804;12.866;2023-07-24T09:40:51;6.63;;;5.35;;
49193;SDS011;35029;50.804;12.866;2023-07-24T09:43:19;6.47;;;5.22;;
49193;SDS011;35029;50.804;12.866;2023-07-24T09:45:47;8.55;;;6.50;;
49193;SDS011;35029;50.804;12.866;2023-07-24T09:48:14;9.07;;;6.68;;
49193;SDS011;35029;50.804;12.866;2023-07-24T09:50:41;8.35;;;6.22;;
49193;SDS011;35029;50.804;12.866;2023-07-24T09:53:17;7.45;;;5.80;;
49193;SDS011;35029;50.804;12.866;2023-07-24T09:55:51;8.35;;;6.65;;
49193;SDS011;35029;50.804;12.866;2023-07-24T09:58:23;9.60;;;6.57;;
49193;SDS011;35029;50.804;12.866;2023-07-24T10:00:49;7.35;;;6.00;;
49193;SDS011;35029;50.804;12.866;2023-07-24T10:03:16;9.45;;;7.28;;
49193;SDS011;35029;50.804;12.866;2023-07-24T10:05:45;9.23;;;6.80;;
49193;SDS011;35029;50.804;12.866;2023-07-24T10:08:12;11.13;;;7.28;;
49193;SDS011;35029;50.804;12.866;2023-07-24T10:10:40;9.07;;;7.30;;
49193;SDS011;35029;50.804;12.866;2023-07-24T10:13:06;11.23;;;7.50;;
49193;SDS011;35029;50.804;12.866;2023-07-24T10:15:36;9.43;;;7.40;;
49193;SDS011;35029;50.804;12.866;2023-07-24T10:18:03;9.02;;;6.90;;
49193;SDS011;35029;50.804;12.866;2023-07-24T10:20:36;9.68;;;7.22;;
49193;SDS011;35029;50.804;12.866;2023-07-24T10:23:04;8.45;;;6.95;;
49193;SDS011;35029;50.804;12.866;2023-07-24T10:25:31;11.27;;;7.20;;
49193;SDS011;35029;50.804;12.866;2023-07-24T10:28:15;8.38;;;7.38;;
49193;SDS011;35029;50.804;12.866;2023-07-24T10:30:41;9.10;;;7.18;;
49193;SDS011;35029;50.804;12.866;2023-07-24T10:35:44;9.13;;;7.20;;
49193;SDS011;35029;50.804;12.866;2023-07-24T10:38:12;10.15;;;7.13;;
49193;SDS011;35029;50.804;12.866;2023-07-24T10:40:42;10.77;;;7.72;;
49193;SDS011;35029;50.804;12.866;2023-07-24T10:43:19;10.82;;;8.55;;
49193;SDS011;35029;50.804;12.866;2023-07-24T10:45:49;9.25;;;7.18;;
49193;SDS011;35029;50.804;12.866;2023-07-24T10:48:16;9.48;;;7.68;;
49193;SDS011;35029;50.804;12.866;2023-07-24T10:50:43;9.63;;;6.97;;
49193;SDS011;35029;50.804;12.866;2023-07-24T10:53:10;9.98;;;7.05;;
49193;SDS011;35029;50.804;12.866;2023-07-24T10:55:38;10.68;;;7.22;;
49193;SDS011;35029;50.804;12.866;2023-07-24T10:58:04;11.25;;;7.80;;
49193;SDS011;35029;50.804;12.866;2023-07-24T11:00:31;9.73;;;7.18;;
49193;SDS011;35029;50.804;12.866;2023-07-24T11:02:56;11.55;;;7.50;;
49193;SDS011;35029;50.804;12.866;2023-07-24T11:05:22;9.10;;;7.50;;
49193;SDS011;35029;50.804;12.866;2023-07-24T11:07:48;8.07;;;7.18;;
49193;SDS011;35029;50.804;12.866;2023-07-24T11:10:20;8.85;;;7.65;;
49193;SDS011;35029;50.804;12.866;2023-07-24T11:12:47;10.07;;;7.85;;
49193;SDS011;35029;50.804;12.866;2023-07-24T11:15:12;10.07;;;8.00;;
49193;SDS011;35029;50.804;12.866;2023-07-24T11:17:39;10.35;;;7.30;;
49193;SDS011;35029;50.804;12.866;2023-07-24T11:20:10;9.45;;;6.88;;
49193;SDS011;35029;50.804;12.866;2023-07-24T11:22:41;9.40;;;7.38;;
49193;SDS011;35029;50.804;12.866;2023-07-24T11:27:38;9.77;;;8.10;;
49193;SDS011;35029;50.804;12.866;2023-07-24T11:30:04;12.45;;;8.25;;
49193;SDS011;35029;50.804;12.866;2023-07-24T11:32:30;10.02;;;8.30;;
49193;SDS011;35029;50.804;12.866;2023-07-24T11:34:56;12.70;;;8.60;;
49193;SDS011;35029;50.804;12.866;2023-07-24T11:37:21;11.30;;;8.80;;
49193;SDS011;35029;50.804;12.866;2023-07-24T11:40:00;11.32;;;8.30;;
49193;SDS011;35029;50.804;12.866;2023-07-24T11:42:30;15.18;;;8.15;;
49193;SDS011;35029;50.804;12.866;2023-07-24T11:44:56;10.50;;;7.72;;
49193;SDS011;35029;50.804;12.866;2023-07-24T11:47:25;10.90;;;8.52;;
49193;SDS011;35029;50.804;12.866;2023-07-24T11:50:00;10.43;;;7.80;;
49193;SDS011;35029;50.804;12.866;2023-07-24T11:52:37;12.15;;;8.52;;
49193;SDS011;35029;50.804;12.866;2023-07-24T11:55:13;11.75;;;7.75;;
49193;SDS011;35029;50.804;12.866;2023-07-24T11:57:40;12.10;;;8.32;;
49193;SDS011;35029;50.804;12.866;2023-07-24T12:00:05;11.45;;;8.18;;
49193;SDS011;35029;50.804;12.866;2023-07-24T12:02:43;15.60;;;10.35;;
49193;SDS011;35029;50.804;12.866;2023-07-24T12:05:09;11.30;;;8.20;;
49193;SDS011;35029;50.804;12.866;2023-07-24T12:07:35;12.65;;;9.05;;
49193;SDS011;35029;50.804;12.866;2023-07-24T12:10:04;9.02;;;7.25;;
49193;SDS011;35029;50.804;12.866;2023-07-24T12:12:43;11.30;;;8.00;;
49193;SDS011;35029;50.804;12.866;2023-07-24T12:15:10;11.35;;;7.65;;
49193;SDS011;35029;50.804;12.866;2023-07-24T12:17:36;9.10;;;7.60;;
49193;SDS011;35029;50.804;12.866;2023-07-24T12:20:03;9.15;;;7.57;;
49193;SDS011;35029;50.804;12.866;2023-07-24T12:22:31;10.45;;;7.72;;
49193;SDS011;35029;50.804;12.866;2023-07-24T12:24:57;11.05;;;7.07;;
49193;SDS011;35029;50.804;12.866;2023-07-24T12:27:24;10.95;;;6.82;;
49193;SDS011;35029;50.804;12.866;2023-07-24T12:29:50;7.00;;;6.30;;
49193;SDS011;35029;50.804;12.866;2023-07-24T12:32:16;8.82;;;6.13;;
49193;SDS011;35029;50.804;12.866;2023-07-24T12:34:43;9.35;;;6.18;;
49193;SDS011;35029;50.804;12.866;2023-07-24T12:37:09;12.35;;;5.82;;
49193;SDS011;35029;50.804;12.866;2023-07-24T12:39:35;6.60;;;5.35;;
49193;SDS011;35029;50.804;12.866;2023-07-24T12:42:00;6.88;;;5.13;;
49193;SDS011;35029;50.804;12.866;2023-07-24T12:44:26;8.80;;;5.93;;
49193;SDS011;35029;50.804;12.866;2023-07-24T12:46:53;6.72;;;5.00;;
49193;SDS011;35029;50.804;12.866;2023-07-24T12:49:18;7.22;;;5.13;;
49193;SDS011;35029;50.804;12.866;2023-07-24T12:51:44;5.32;;;4.30;;
49193;SDS011;35029;50.804;12.866;2023-07-24T12:54:18;5.07;;;3.80;;
49193;SDS011;35029;50.804;12.866;2023-07-24T12:56:46;5.63;;;4.13;;
49193;SDS011;35029;50.804;12.866;2023-07-24T13:01:47;6.00;;;3.92;;
49193;SDS011;35029;50.804;12.866;2023-07-24T13:04:15;7.57;;;4.53;;
49193;SDS011;35029;50.804;12.866;2023-07-24T13:06:46;5.30;;;4.22;;
49193;SDS011;35029;50.804;12.866;2023-07-24T13:09:12;5.40;;;4.43;;
49193;SDS011;35029;50.804;12.866;2023-07-24T13:11:37;6.30;;;4.25;;
49193;SDS011;35029;50.804;12.866;2023-07-24T13:14:03;5.22;;;4.57;;
49193;SDS011;35029;50.804;12.866;2023-07-24T13:16:28;5.60;;;4.50;;
49193;SDS011;35029;50.804;12.866;2023-07-24T13:18:54;5.18;;;4.35;;
49193;SDS011;35029;50.804;12.866;2023-07-24T13:21:20;6.22;;;4.82;;
49193;SDS011;35029;50.804;12.866;2023-07-24T13:23:45;6.78;;;5.57;;
49193;SDS011;35029;50.804;12.866;2023-07-24T13:26:11;6.32;;;5.63;;
49193;SDS011;35029;50.804;12.866;2023-07-24T13:28:38;7.05;;;5.60;;
49193;SDS011;35029;50.804;12.866;2023-07-24T13:31:17;8.32;;;6.18;;
49193;SDS011;35029;50.804;12.866;2023-07-24T13:33:43;8.30;;;6.47;;
49193;SDS011;35029;50.804;12.866;2023-07-24T13:36:11;6.63;;;5.93;;
49193;SDS011;35029;50.804;12.866;2023-07-24T13:38:37;8.23;;;6.60;;
49193;SDS011;35029;50.804;12.866;2023-07-24T13:41:03;8.32;;;6.57;;
49193;SDS011;35029;50.804;12.866;2023-07-24T13:43:29;7.88;;;5.97;;
49193;SDS011;35029;50.804;12.866;2023-07-24T13:45:56;5.93;;;5.30;;
49193;SDS011;35029;50.804;12.866;2023-07-24T13:48:24;9.40;;;6.63;;
49193;SDS011;35029;50.804;12.866;2023-07-24T13:50:51;6.70;;;5.65;;
49193;SDS011;35029;50.804;12.866;2023-07-24T13:53:17;9.88;;;6.45;;
49193;SDS011;35029;50.804;12.866;2023-07-24T13:55:42;8.25;;;6.55;;
49193;SDS011;35029;50.804;12.866;2023-07-24T13:58:08;7.70;;;6.82;;
49193;SDS011;35029;50.804;12.866;2023-07-24T14:00:33;7.82;;;6.68;;
49193;SDS011;35029;50.804;12.866;2023-07-24T14:02:59;8.38;;;6.70;;
49193;SDS011;35029;50.804;12.866;2023-07-24T14:05:24;8.05;;;6.63;;
49193;SDS011;35029;50.804;12.866;2023-07-24T14:07:50;10.00;;;7.72;;
49193;SDS011;35029;50.804;12.866;2023-07-24T14:10:15;9.80;;;7.63;;
49193;SDS011;35029;50.804;12.866;2023-07-24T14:12:41;8.98;;;6.32;;
49193;SDS011;35029;50.804;12.866;2023-07-24T14:15:06;9.95;;;7.65;;
49193;SDS011;35029;50.804;12.866;2023-07-24T14:17:32;9.85;;;7.03;;
49193;SDS011;35029;50.804;12.866;2023-07-24T14:20:00;10.60;;;7.90;;
49193;SDS011;35029;50.804;12.866;2023-07-24T14:22:26;9.55;;;7.68;;
49193;SDS011;35029;50.804;12.866;2023-07-24T14:24:52;8.50;;;7.05;;
49193;SDS011;35029;50.804;12.866;2023-07-24T14:27:17;11.55;;;8.10;;
49193;SDS011;35029;50.804;12.866;2023-07-24T14:29:43;9.35;;;7.88;;
49193;SDS011;35029;50.804;12.866;2023-07-24T14:32:08;9.07;;;7.57;;
49193;SDS011;35029;50.804;12.866;2023-07-24T14:34:34;8.45;;;7.40;;
49193;SDS011;35029;50.804;12.866;2023-07-24T14:36:59;9.70;;;8.07;;
49193;SDS011;35029;50.804;12.866;2023-07-24T14:39:25;11.13;;;7.43;;
49193;SDS011;35029;50.804;12.866;2023-07-24T14:41:50;8.57;;;7.68;;